TimePST,TemperatureF,Dew PointF,Humidity,Sea Level PressureIn,VisibilityMPH,Wind Direction,Wind SpeedMPH,Gust SpeedMPH,PrecipitationIn,Events,Conditions,WindDirDegrees,DateUTC
12:55 AM,35.1,33.1,92,29.86,8.0,East,4.6,-,N/A,,Overcast,80,2013-03-07 08:55:00
1:55 AM,35.1,32.0,89,29.88,8.0,East,3.5,-,N/A,,Overcast,80,2013-03-07 09:55:00
2:55 AM,35.1,32.0,89,29.89,10.0,East,3.5,-,N/A,,Overcast,90,2013-03-07 10:55:00
3:55 AM,35.1,32.0,89,29.91,10.0,Calm,Calm,-,N/A,,Mostly Cloudy,0,2013-03-07 11:55:00
4:55 AM,35.1,32.0,89,29.93,10.0,Calm,Calm,-,N/A,,Overcast,0,2013-03-07 12:55:00
5:55 AM,35.1,32.0,89,29.96,10.0,Calm,Calm,-,N/A,,Overcast,0,2013-03-07 13:55:00
6:55 AM,35.1,32.0,89,29.97,10.0,Calm,Calm,-,N/A,,Overcast,0,2013-03-07 14:55:00
7:55 AM,36.0,34.0,93,30.00,10.0,Calm,Calm,-,N/A,,Overcast,0,2013-03-07 15:55:00
8:55 AM,37.9,34.0,86,30.02,10.0,Calm,Calm,-,N/A,,Overcast,0,2013-03-07 16:55:00
9:55 AM,42.1,36.0,79,30.03,10.0,Calm,Calm,-,N/A,,Clear,0,2013-03-07 17:55:00
10:55 AM,43.0,37.9,82,30.04,10.0,Calm,Calm,-,N/A,,Overcast,0,2013-03-07 18:55:00
11:55 AM,45.0,37.0,74,30.03,10.0,Calm,Calm,-,N/A,,Mostly Cloudy,0,2013-03-07 19:55:00
12:55 PM,48.0,35.1,61,30.02,10.0,Calm,Calm,-,N/A,,Clear,0,2013-03-07 20:55:00
1:55 PM,51.1,34.0,52,30.01,10.0,Calm,Calm,-,N/A,,Scattered Clouds,0,2013-03-07 21:55:00
2:55 PM,50.0,28.9,44,30.01,10.0,Calm,Calm,-,N/A,,Overcast,0,2013-03-07 22:55:00
3:55 PM,50.0,32.0,50,30.01,10.0,WNW,4.6,-,N/A,,Overcast,290,2013-03-07 23:55:00
4:55 PM,48.0,33.1,56,30.01,10.0,WNW,8.1,-,N/A,,Overcast,290,2013-03-08 00:55:00
5:55 PM,45.0,33.1,63,30.03,10.0,NW,5.8,-,N/A,,Partly Cloudy,310,2013-03-08 01:55:00
6:55 PM,41.0,34.0,76,30.05,10.0,WNW,10.4,-,N/A,,Partly Cloudy,300,2013-03-08 02:55:00
7:55 PM,41.0,34.0,76,30.07,10.0,NNW,5.8,-,N/A,,Scattered Clouds,330,2013-03-08 03:55:00
8:55 PM,39.0,33.1,79,30.08,10.0,WNW,4.6,-,N/A,,Clear,300,2013-03-08 04:55:00
9:55 PM,37.9,32.0,79,30.08,10.0,Calm,Calm,-,N/A,,Partly Cloudy,0,2013-03-08 05:55:00
10:55 PM,36.0,32.0,86,30.08,10.0,Calm,Calm,-,N/A,,Clear,0,2013-03-08 06:55:00
11:55 PM,34.0,30.9,89,30.08,10.0,Calm,Calm,-,N/A,,Clear,0,2013-03-08 07:55:00